createdAt,value
2022-07-29T00:01:47.719Z,73.19
2022-07-29T00:04:17.504Z,73.04
2022-07-29T00:06:46.852Z,73.69
2022-07-29T00:09:16.817Z,74.08
2022-07-29T00:14:21.991Z,73.73
2022-07-29T00:16:54.500Z,73.83
2022-07-29T00:19:24.155Z,73.94
2022-07-29T00:21:56.293Z,73.87
2022-07-29T00:24:25.237Z,73.82
2022-07-29T00:26:54.044Z,73.85
2022-07-29T00:29:38.136Z,74.06
2022-07-29T00:32:09.878Z,74.46
2022-07-29T00:35:12.886Z,74.45
2022-07-29T00:37:45.446Z,74.32
2022-07-29T00:40:25.591Z,74.54
2022-07-29T00:42:57.608Z,74.51
2022-07-29T00:48:06.229Z,74.59
2022-07-29T00:50:37.162Z,74.47
2022-07-29T00:53:06.954Z,75.09
2022-07-29T00:55:37.421Z,74.84
2022-07-29T00:58:14.884Z,75.56
2022-07-29T01:00:45.865Z,75.37
2022-07-29T01:03:16.568Z,75.53
2022-07-29T01:05:51.636Z,75.53
2022-07-29T01:08:22.908Z,75.76
2022-07-29T01:10:54.775Z,75.92
2022-07-29T01:13:25.760Z,76.13
2022-07-29T01:16:00.047Z,76.30
2022-07-29T01:18:35.247Z,76.38
2022-07-29T01:21:33.011Z,77.13
2022-07-29T01:24:18.952Z,77.02
2022-07-29T01:26:52.148Z,77.11
2022-07-29T01:29:36.098Z,77.07
2022-07-29T01:32:27.591Z,77.56
2022-07-29T01:35:03.068Z,77.73
2022-07-29T01:37:39.440Z,77.56
2022-07-29T01:40:14.311Z,77.79
2022-07-29T01:42:47.852Z,77.91
2022-07-29T01:45:22.546Z,78.11
2022-07-29T01:48:00.569Z,78.05
2022-07-29T01:50:34.058Z,78.40
2022-07-29T01:53:07.634Z,78.37
2022-07-29T01:55:41.232Z,78.43
2022-07-29T01:58:11.923Z,78.33
2022-07-29T02:00:44.762Z,78.35
2022-07-29T02:03:16.674Z,78.35
2022-07-29T02:05:48.964Z,78.40
2022-07-29T02:08:19.614Z,78.15
2022-07-29T02:10:50.104Z,77.98
2022-07-29T02:13:21.649Z,78.08
2022-07-29T02:15:54.993Z,78.04
2022-07-29T02:18:28.003Z,78.01
2022-07-29T02:21:02.323Z,77.88
2022-07-29T02:23:45.018Z,77.55
2022-07-29T02:26:23.054Z,76.99
2022-07-29T02:28:54.619Z,76.90
2022-07-29T02:31:28.260Z,77.10
2022-07-29T02:33:59.306Z,76.76
2022-07-29T02:39:22.268Z,76.30
2022-07-29T02:41:52.794Z,75.93
2022-07-29T02:44:31.248Z,75.67
2022-07-29T02:47:13.889Z,75.34
2022-07-29T02:49:52.799Z,74.86
2022-07-29T02:52:26.173Z,74.73
2022-07-29T02:54:58.788Z,74.33
2022-07-29T02:57:36.039Z,74.30
2022-07-29T03:00:26.357Z,73.72
2022-07-29T03:03:01.354Z,73.19
2022-07-29T03:05:31.283Z,72.98
2022-07-29T03:08:04.264Z,72.17
2022-07-29T03:10:34.113Z,72.01
2022-07-29T03:13:13.886Z,71.81
2022-07-29T03:15:47.142Z,71.41
2022-07-29T03:18:22.482Z,71.26
2022-07-29T03:20:55.193Z,71.22
2022-07-29T03:23:28.605Z,71.06
2022-07-29T03:37:07.441Z,69.77
2022-07-29T03:39:41.234Z,68.94
2022-07-29T03:42:13.170Z,69.09
2022-07-29T03:44:44.939Z,68.65
2022-07-29T03:47:22.727Z,68.15
2022-07-29T03:50:07.274Z,68.22
2022-07-29T03:52:45.511Z,67.79
2022-07-29T03:55:15.968Z,67.20
2022-07-29T03:57:45.819Z,67.03
2022-07-29T04:00:17.204Z,67.04
2022-07-29T04:02:50.524Z,67.02
2022-07-29T04:05:21.873Z,66.44
2022-07-29T04:07:56.369Z,66.39
2022-07-29T04:10:31.676Z,66.37
2022-07-29T04:13:02.690Z,65.94
2022-07-29T04:15:33.824Z,65.73
2022-07-29T04:18:04.142Z,65.51
2022-07-29T04:23:52.789Z,64.85
2022-07-29T04:26:25.370Z,64.75
2022-07-29T04:28:56.233Z,64.59
2022-07-29T04:31:29.646Z,64.05
2022-07-29T04:34:10.358Z,63.80
2022-07-29T04:36:48.945Z,63.46
2022-07-29T04:39:23.282Z,63.23
2022-07-29T05:15:53.797Z,60.95
2022-07-29T05:18:26.089Z,60.70
2022-07-29T05:20:55.777Z,59.76
2022-07-29T05:23:24.307Z,59.75
2022-07-29T05:25:53.308Z,59.59
2022-07-29T05:28:21.751Z,59.10
2022-07-29T05:30:51.630Z,58.98
2022-07-29T05:33:36.398Z,58.47
2022-07-29T05:36:18.141Z,58.48
2022-07-29T05:39:00.280Z,58.51
2022-07-29T05:41:28.943Z,58.45
2022-07-29T05:49:27.158Z,57.67
2022-07-29T05:51:57.951Z,57.37
2022-07-29T05:54:27.309Z,56.65
2022-07-29T05:56:57.004Z,56.40
2022-07-29T05:59:30.335Z,56.19
2022-07-29T06:02:01.018Z,55.95
2022-07-29T06:04:32.076Z,55.30
2022-07-29T06:07:01.099Z,54.99
2022-07-29T06:09:31.015Z,54.75
2022-07-29T06:12:00.754Z,54.20
2022-07-29T06:14:36.621Z,52.55
2022-07-29T06:17:13.310Z,52.60
2022-07-29T06:19:48.345Z,51.82
2022-07-29T06:22:48.456Z,51.03
2022-07-29T06:25:17.398Z,51.24
2022-07-29T06:27:49.316Z,51.39
2022-07-29T06:30:19.966Z,51.07
2022-07-29T06:33:40.480Z,51.18
2022-07-29T06:42:13.695Z,49.15
2022-07-29T07:00:15.161Z,46.99
2022-07-29T07:03:07.278Z,46.44
2022-07-29T07:05:45.489Z,45.95
2022-07-29T07:08:28.795Z,45.38
2022-07-29T07:13:43.336Z,45.42
2022-07-29T07:16:16.222Z,45.08
2022-07-29T07:18:46.409Z,44.67
2022-07-29T07:21:31.504Z,42.94
2022-07-29T07:24:00.465Z,42.54
2022-07-29T07:26:45.370Z,43.48
2022-07-29T07:29:15.057Z,43.41
2022-07-29T07:32:00.976Z,43.48
2022-07-29T07:40:53.039Z,43.02
2022-07-29T07:43:35.875Z,42.42
2022-07-29T08:01:47.890Z,40.41
2022-07-29T08:04:49.808Z,40.03
2022-07-29T08:07:38.084Z,39.82
2022-07-29T08:10:11.656Z,39.96
2022-07-29T08:12:54.690Z,39.06
2022-07-29T08:15:32.230Z,38.52
2022-07-29T08:18:10.630Z,37.68
2022-07-29T08:23:25.710Z,38.65
2022-07-29T08:26:04.008Z,39.15
2022-07-29T08:28:40.352Z,39.43
2022-07-29T08:31:09.559Z,38.64
2022-07-29T08:33:38.622Z,37.89
2022-07-29T08:36:09.102Z,37.61
2022-07-29T08:38:42.671Z,36.90
2022-07-29T08:56:31.813Z,35.70
2022-07-29T08:59:09.346Z,35.28
2022-07-29T09:15:14.194Z,36.46
2022-07-29T09:17:51.792Z,36.43
2022-07-29T09:20:50.177Z,36.17
2022-07-29T09:23:24.356Z,36.17
2022-07-29T09:25:55.830Z,35.60
2022-07-29T09:28:32.284Z,36.07
2022-07-29T09:31:03.997Z,36.00
2022-07-29T09:33:37.869Z,35.60
2022-07-29T09:36:15.267Z,35.40
2022-07-29T09:42:14.412Z,34.88
2022-07-29T09:44:47.937Z,34.46
2022-07-29T09:47:19.589Z,34.67
2022-07-29T09:50:00.669Z,34.38
2022-07-29T09:52:39.237Z,34.46
2022-07-29T09:55:13.544Z,34.33
2022-07-29T09:57:47.277Z,34.07
2022-07-29T10:00:20.428Z,33.82
2022-07-29T10:11:13.073Z,35.66
2022-07-29T10:13:51.798Z,34.71
2022-07-29T10:19:41.676Z,32.35
2022-07-29T10:22:57.766Z,29.75
2022-07-29T10:25:33.478Z,29.32
2022-07-29T10:31:01.318Z,26.78
2022-07-29T10:33:54.824Z,25.22
2022-07-29T10:42:55.029Z,24.50
2022-07-29T10:45:32.774Z,25.61
2022-07-29T10:48:10.801Z,26.22
2022-07-29T10:50:58.784Z,27.53
2022-07-29T10:53:52.122Z,29.36
2022-07-29T10:56:28.333Z,29.39
2022-07-29T10:59:32.455Z,29.00
2022-07-29T11:02:41.376Z,27.23
2022-07-29T11:05:14.166Z,25.54
2022-07-29T11:07:59.783Z,23.53
2022-07-29T11:10:35.727Z,21.49
2022-07-29T11:13:08.279Z,20.22
2022-07-29T11:15:57.768Z,18.49
2022-07-29T11:18:27.526Z,20.33
2022-07-29T11:21:06.592Z,21.75
2022-07-29T11:23:38.199Z,23.67
2022-07-29T11:26:23.558Z,25.38
2022-07-29T11:32:32.906Z,27.46
2022-07-29T11:45:45.190Z,25.24
2022-07-29T11:48:39.176Z,27.07
2022-07-29T11:54:30.223Z,29.48
2022-07-29T11:57:07.902Z,30.22
2022-07-29T11:59:48.010Z,30.49
2022-07-29T12:02:38.854Z,28.61
2022-07-29T12:17:50.085Z,27.28
2022-07-29T12:23:20.831Z,26.58
2022-07-29T12:25:59.475Z,26.87
2022-07-29T12:31:43.406Z,25.89
2022-07-29T12:43:36.536Z,25.77
2022-07-29T12:46:17.546Z,25.78
2022-07-29T12:48:47.565Z,26.67
2022-07-29T12:51:20.112Z,27.92
2022-07-29T12:54:07.235Z,28.17
2022-07-29T12:56:44.693Z,28.77
2022-07-29T12:59:16.701Z,29.12
2022-07-29T13:01:45.985Z,28.33
2022-07-29T13:04:28.163Z,27.93
2022-07-29T13:07:10.509Z,28.04
2022-07-29T13:09:41.557Z,27.43
2022-07-29T13:12:11.637Z,25.06
2022-07-29T13:14:43.546Z,22.85
2022-07-29T13:17:14.745Z,21.46
2022-07-29T13:19:51.126Z,20.08
2022-07-29T13:32:03.980Z,16.12
2022-07-29T13:34:32.876Z,16.24
2022-07-29T13:37:02.355Z,15.49
2022-07-29T13:39:31.403Z,15.63
2022-07-29T13:42:00.591Z,15.33
2022-07-29T13:44:29.359Z,16.21
2022-07-29T13:46:59.986Z,17.92
2022-07-29T13:49:31.265Z,17.58
2022-07-29T13:52:00.148Z,17.26
2022-07-29T13:54:28.942Z,16.84
2022-07-29T13:56:57.601Z,15.49
2022-07-29T13:59:26.277Z,16.67
2022-07-29T14:01:54.947Z,18.76
2022-07-29T14:04:24.496Z,20.48
2022-07-29T14:06:54.410Z,21.96
2022-07-29T14:09:22.774Z,22.99
2022-07-29T14:11:52.553Z,23.74
2022-07-29T14:14:21.680Z,25.79
2022-07-29T14:16:52.345Z,26.02
2022-07-29T14:19:21.065Z,26.58
2022-07-29T14:21:49.793Z,25.66
2022-07-29T14:24:21.676Z,22.45
2022-07-29T14:26:52.505Z,19.62
2022-07-29T14:29:21.034Z,17.88
2022-07-29T14:31:49.671Z,16.88
2022-07-29T14:34:18.408Z,17.74
2022-07-29T14:36:47.201Z,18.48
2022-07-29T14:39:16.829Z,17.04
2022-07-29T14:41:47.384Z,16.41
2022-07-29T14:44:16.531Z,16.17
2022-07-29T14:46:59.293Z,16.21
2022-07-29T14:49:28.625Z,16.37
2022-07-29T14:51:58.073Z,16.43
2022-07-29T14:57:16.427Z,16.58
2022-07-29T14:59:45.664Z,16.32
2022-07-29T15:04:54.750Z,15.81
2022-07-29T15:07:23.716Z,15.49
2022-07-29T15:09:54.870Z,15.77
2022-07-29T15:12:33.377Z,16.46
2022-07-29T15:15:02.003Z,16.62
2022-07-29T15:17:34.181Z,18.15
2022-07-29T15:20:03.304Z,18.97
2022-07-29T15:22:34.515Z,20.63
2022-07-29T15:25:03.617Z,20.20
2022-07-29T15:27:35.003Z,20.28
2022-07-29T15:30:04.951Z,22.75
2022-07-29T15:32:34.848Z,24.96
2022-07-29T15:35:04.295Z,26.56
2022-07-29T15:37:48.831Z,27.78
2022-07-29T15:40:18.900Z,28.71
2022-07-29T15:42:50.071Z,26.28
2022-07-29T15:45:20.187Z,24.22
2022-07-29T15:47:49.656Z,22.64
2022-07-29T15:53:09.472Z,25.58
2022-07-29T15:58:38.571Z,27.03
2022-07-29T16:04:27.448Z,30.04
2022-07-29T16:07:05.686Z,30.70
2022-07-29T16:16:02.198Z,34.09
2022-07-29T16:30:34.911Z,38.75
2022-07-29T16:33:22.165Z,40.30
2022-07-29T16:35:51.766Z,40.78
2022-07-29T16:38:31.579Z,41.87
2022-07-29T16:41:00.734Z,42.08
2022-07-29T16:43:31.677Z,42.64
2022-07-29T16:46:01.384Z,43.02
2022-07-29T16:48:31.170Z,42.64
2022-07-29T16:51:00.092Z,42.53
2022-07-29T16:53:30.221Z,42.09
2022-07-29T16:55:59.045Z,42.60
2022-07-29T16:58:27.885Z,43.00
2022-07-29T17:00:59.045Z,43.24
2022-07-29T17:03:27.910Z,43.75
2022-07-29T17:05:57.232Z,44.07
2022-07-29T17:08:27.437Z,43.29
2022-07-29T17:10:56.592Z,41.49
2022-07-29T17:13:33.290Z,40.85
2022-07-29T17:16:03.518Z,40.17
2022-07-29T17:18:32.729Z,39.61
2022-07-29T17:21:02.551Z,39.72
2022-07-29T17:23:31.271Z,39.41
2022-07-29T17:26:00.293Z,40.57
2022-07-29T17:28:28.745Z,42.85
2022-07-29T17:30:58.344Z,42.63
2022-07-29T17:33:29.145Z,43.64
2022-07-29T17:36:26.931Z,44.27
2022-07-29T17:38:58.450Z,45.52
2022-07-29T17:44:56.016Z,47.28
2022-07-29T17:47:39.970Z,46.83
2022-07-29T17:50:26.057Z,48.05
2022-07-29T17:56:38.805Z,48.75
2022-07-29T18:05:56.894Z,49.26
2022-07-29T18:09:08.895Z,49.74
2022-07-29T18:12:00.164Z,50.09
2022-07-29T18:14:58.276Z,50.58
2022-07-29T18:17:52.837Z,50.88
2022-07-29T18:20:26.101Z,51.13
2022-07-29T18:22:55.994Z,51.50
2022-07-29T18:25:25.850Z,52.19
2022-07-29T18:27:59.893Z,52.30
2022-07-29T18:30:29.609Z,52.64
2022-07-29T18:33:20.359Z,52.48
2022-07-29T18:35:47.608Z,53.13
2022-07-29T18:38:18.530Z,53.42
2022-07-29T18:40:48.235Z,54.01
2022-07-29T18:43:20.662Z,54.21
2022-07-29T18:45:51.730Z,54.53
2022-07-29T18:48:21.375Z,55.03
2022-07-29T18:50:50.512Z,55.39
2022-07-29T18:53:21.243Z,55.48
2022-07-29T18:55:50.300Z,55.49
2022-07-29T18:58:19.142Z,55.57
2022-07-29T19:00:48.074Z,55.42
2022-07-29T19:03:18.440Z,56.05
2022-07-29T19:05:47.821Z,56.02
2022-07-29T19:08:17.235Z,55.42
2022-07-29T19:10:49.552Z,55.73
2022-07-29T19:13:18.838Z,56.01
2022-07-29T19:15:50.539Z,55.92
2022-07-29T19:18:21.233Z,55.83
2022-07-29T19:20:50.404Z,55.67
2022-07-29T19:23:19.877Z,55.99
2022-07-29T19:25:53.418Z,56.25
2022-07-29T19:28:27.694Z,56.29
2022-07-29T19:31:00.238Z,56.31
2022-07-29T19:33:29.573Z,56.55
2022-07-29T19:35:58.611Z,56.65
2022-07-29T19:38:28.072Z,56.95
2022-07-29T19:40:59.186Z,56.74
2022-07-29T19:43:52.171Z,56.77
2022-07-29T19:46:18.458Z,56.89
2022-07-29T19:48:47.859Z,57.48
2022-07-29T19:57:14.381Z,58.04
2022-07-29T19:59:55.934Z,57.78
2022-07-29T20:02:28.274Z,57.86
2022-07-29T20:04:58.344Z,58.21
2022-07-29T20:07:29.782Z,58.50
2022-07-29T20:10:05.789Z,58.39
2022-07-29T20:29:06.354Z,59.57
2022-07-29T20:31:44.968Z,59.86
2022-07-29T20:34:22.788Z,60.53
2022-07-29T20:36:56.471Z,60.60
2022-07-29T20:39:26.245Z,60.67
2022-07-29T20:41:56.874Z,60.96
2022-07-29T20:44:26.223Z,60.95
2022-07-29T20:46:58.279Z,61.32
2022-07-29T20:49:39.085Z,61.08
2022-07-29T20:52:21.559Z,61.41
2022-07-29T21:07:01.520Z,61.99
2022-07-29T21:09:32.383Z,62.05
2022-07-29T21:14:54.189Z,62.34
2022-07-29T21:17:36.603Z,63.08
2022-07-29T21:20:19.099Z,63.11
2022-07-29T21:22:59.152Z,62.81
2022-07-29T21:28:21.889Z,62.66
2022-07-29T21:30:53.545Z,62.97
2022-07-29T21:36:42.778Z,63.50
2022-07-29T21:41:45.369Z,63.13
2022-07-29T21:44:19.288Z,63.10
2022-07-29T21:46:50.190Z,63.16
2022-07-29T21:49:20.658Z,63.38
2022-07-29T21:51:49.931Z,63.40
2022-07-29T21:54:25.427Z,63.12
2022-07-29T21:56:58.101Z,63.63
2022-07-29T21:59:27.408Z,63.66
2022-07-29T22:02:01.678Z,63.61
2022-07-29T22:04:31.315Z,63.86
2022-07-29T22:07:01.905Z,64.05
2022-07-29T22:09:34.369Z,64.08
2022-07-29T22:12:04.089Z,64.61
2022-07-29T22:14:33.596Z,64.51
2022-07-29T22:17:09.905Z,64.82
2022-07-29T22:19:40.736Z,64.89
2022-07-29T22:22:10.551Z,65.23
2022-07-29T22:24:44.251Z,65.84
2022-07-29T22:27:15.636Z,65.73
2022-07-29T22:29:46.403Z,66.08
2022-07-29T22:32:17.503Z,65.91
2022-07-29T22:34:51.620Z,66.08
2022-07-29T22:37:21.628Z,66.12
2022-07-29T22:39:55.846Z,66.81
2022-07-29T22:45:01.322Z,66.43
2022-07-29T23:00:46.809Z,67.44
2022-07-29T23:03:16.323Z,67.38
2022-07-29T23:05:47.532Z,67.16
2022-07-29T23:08:16.907Z,66.83
2022-07-29T23:10:49.747Z,67.20
2022-07-29T23:13:18.966Z,66.97
2022-07-29T23:15:50.408Z,67.15
2022-07-29T23:20:54.973Z,67.06
2022-07-29T23:23:24.879Z,67.27
2022-07-29T23:26:02.529Z,67.01
2022-07-29T23:28:31.547Z,66.99
2022-07-29T23:31:17.664Z,67.03
2022-07-29T23:33:46.937Z,66.87
2022-07-29T23:36:15.486Z,67.17
2022-07-29T23:38:46.458Z,67.20
2022-07-29T23:41:16.919Z,67.08
2022-07-29T23:43:46.300Z,67.21
2022-07-29T23:46:15.301Z,66.93
2022-07-29T23:48:44.304Z,67.25
2022-07-29T23:51:13.277Z,67.09
2022-07-29T23:53:53.038Z,66.97
2022-07-29T23:56:24.838Z,67.19
2022-07-29T23:58:55.351Z,67.27
